Time;durP1;ratioP1;P1;durP2;ratioP2;P2;SDS_P1;SDS_P2;PMS_P1;PMS_P2;Temp;Humidity;BMP_temperature;BMP_pressure;BME280_temperature;BME280_humidity;BME280_pressure;Samples;Min_cycle;Max_cycle;Signal;HPM_P1;HPM_P2
2022/10/06 00:01:09;;;;;;;0.68;0.68;;;;;;;11.22;78.81;100332.00;4232202;33;33396;-74
2022/10/06 00:03:38;;;;;;;1.25;1.15;;;;;;;11.38;78.49;100331.16;4219833;33;34010;-74
2022/10/06 00:06:07;;;;;;;0.93;0.93;;;;;;;11.39;78.75;100327.69;4208703;33;35315;-74
2022/10/06 00:08:37;;;;;;;0.75;0.75;;;;;;;11.34;78.97;100326.81;4221438;33;35214;-74
2022/10/06 00:11:06;;;;;;;0.95;0.95;;;;;;;11.47;77.57;100323.38;4234198;33;33756;-74
2022/10/06 00:13:35;;;;;;;0.73;0.73;;;;;;;11.06;79.90;100321.50;4234218;33;33899;-74
2022/10/06 00:16:09;;;;;;;1.40;1.30;;;;;;;11.22;79.51;100322.41;4234114;33;35940;-74
2022/10/06 00:18:37;;;;;;;0.77;0.77;;;;;;;11.41;77.99;100322.47;4234299;33;35247;-74
2022/10/06 00:21:05;;;;;;;1.85;0.90;;;;;;;11.34;77.87;100317.22;4234168;33;33113;-74
2022/10/06 00:23:34;;;;;;;1.52;1.42;;;;;;;11.27;78.05;100320.69;4234050;33;34044;-74
2022/10/06 00:26:02;;;;;;;0.85;0.85;;;;;;;11.22;78.56;100311.13;4221365;33;35012;-74
2022/10/06 00:28:30;;;;;;;0.70;0.70;;;;;;;11.34;78.40;100312.00;4221383;33;34627;-74
2022/10/06 00:31:02;;;;;;;0.50;0.50;;;;;;;10.60;80.98;100313.50;4234441;33;33665;-74
2022/10/06 00:33:30;;;;;;;0.40;0.40;;;;;;;11.31;78.54;100318.97;4221452;33;34036;-75
2022/10/06 00:35:59;;;;;;;1.15;1.10;;;;;;;11.30;78.32;100310.28;4233992;33;35106;-74
2022/10/06 00:38:27;;;;;;;0.60;0.60;;;;;;;11.19;78.09;100315.47;4221527;33;34367;-74
2022/10/06 00:40:56;;;;;;;0.93;0.80;;;;;;;11.36;77.32;100304.19;4234064;33;33476;-74
2022/10/06 00:43:53;;;;;;;0.57;0.57;;;;;;;11.25;77.91;100306.78;4233966;33;34086;-74
2022/10/06 00:46:36;;;;;;;0.93;0.70;;;;;;;11.27;77.75;100310.25;4233899;33;35789;-74
2022/10/06 00:49:10;;;;;;;0.40;0.40;;;;;;;10.69;80.87;100310.09;4221164;33;33323;-74
2022/10/06 00:51:43;;;;;;;0.65;0.60;;;;;;;11.16;77.65;100310.25;4233987;33;33484;-74
2022/10/06 00:54:11;;;;;;;1.12;1.12;;;;;;;11.00;77.83;100301.53;4221373;33;33916;-74
2022/10/06 00:56:40;;;;;;;0.75;0.75;;;;;;;11.04;77.42;100304.13;4221343;33;35805;-74
2022/10/06 00:59:13;;;;;;;1.27;1.20;;;;;;;10.88;78.03;100308.44;4234111;33;34540;-74
2022/10/06 01:01:47;;;;;;;0.77;0.77;;;;;;;10.28;79.93;100314.19;4221425;33;33776;-74
2022/10/06 01:04:16;;;;;;;0.65;0.65;;;;;;;10.58;79.59;100310.91;4221247;33;34081;-74
2022/10/06 01:06:51;;;;;;;0.50;0.50;;;;;;;10.81;78.25;100310.12;4221142;33;35908;-74
2022/10/06 01:09:19;;;;;;;0.80;0.80;;;;;;;10.94;76.78;100311.03;4233706;33;34424;-74
2022/10/06 01:11:50;;;;;;;0.62;0.62;;;;;;;11.07;75.53;100307.63;4221239;33;34252;-74
2022/10/06 01:14:18;;;;;;;1.87;1.67;;;;;;;10.92;75.54;100307.56;4233939;33;33972;-74
2022/10/06 01:16:50;;;;;;;1.45;1.30;;;;;;;10.89;75.59;100304.94;4233251;33;35865;-74
2022/10/06 01:19:46;;;;;;;0.40;0.40;;;;;;;10.70;75.15;100302.28;4233545;33;35101;-74
2022/10/06 01:22:16;;;;;;;0.75;0.75;;;;;;;10.45;76.83;100309.13;4233779;33;33576;-74
2022/10/06 01:24:45;;;;;;;2.15;1.77;;;;;;;10.56;75.41;100311.78;4221232;33;34744;-74
2022/10/06 01:27:14;;;;;;;0.50;0.50;;;;;;;10.43;76.02;100313.44;4221296;33;34959;-74
2022/10/06 01:29:42;;;;;;;0.50;0.50;;;;;;;10.43;75.55;100313.44;4221076;33;35340;-74
2022/10/06 01:32:10;;;;;;;2.85;2.60;;;;;;;10.12;76.41;100309.75;4221127;33;33527;-74
2022/10/06 01:34:38;;;;;;;1.85;1.75;;;;;;;10.08;75.99;100311.47;4233962;33;33958;-74
2022/10/06 01:37:06;;;;;;;2.25;2.08;;;;;;;9.35;79.81;100309.09;4233916;33;35039;-74
2022/10/06 01:39:34;;;;;;;0.88;0.88;;;;;;;10.05;78.01;100317.50;4233596;33;34502;-74
2022/10/06 01:42:02;;;;;;;0.80;0.80;;;;;;;10.05;77.78;100322.69;4233878;33;33408;-74
2022/10/06 01:44:31;;;;;;;0.50;0.50;;;;;;;10.11;77.06;100316.69;4233899;33;34049;-74
2022/10/06 01:46:59;;;;;;;0.70;0.70;;;;;;;10.14;76.25;100321.03;4233559;33;34648;-74
2022/10/06 01:49:27;;;;;;;0.57;0.57;;;;;;;9.94;76.20;100319.16;4233797;33;35309;-74
2022/10/06 01:51:55;;;;;;;0.50;0.50;;;;;;;10.03;76.05;100321.81;4233502;33;34443;-74
2022/10/06 01:54:23;;;;;;;3.60;1.98;;;;;;;9.98;75.77;100326.13;4233517;33;34698;-74
2022/10/06 01:56:51;;;;;;;0.70;0.70;;;;;;;9.85;75.92;100332.09;4233487;33;35915;-74
2022/10/06 01:59:18;;;;;;;0.90;0.80;;;;;;;9.04;80.12;100321.78;4233820;33;35293;-74
2022/10/06 02:01:47;;;;;;;2.25;0.80;;;;;;;9.29;79.49;100333.31;4233883;33;33661;-74
2022/10/06 02:04:15;;;;;;;0.70;0.70;;;;;;;9.26;81.43;100328.94;4220958;33;33957;-74
2022/10/06 02:06:43;;;;;;;1.50;1.40;;;;;;;9.74;77.80;100331.13;4220835;33;35082;-74
2022/10/06 02:09:11;;;;;;;0.65;0.65;;;;;;;9.52;78.41;100328.34;4233202;33;34426;-74
2022/10/06 02:11:40;;;;;;;0.50;0.50;;;;;;;9.66;77.95;100333.66;4221099;33;34135;-74
2022/10/06 02:14:07;;;;;;;0.68;0.68;;;;;;;9.68;77.30;100327.59;4233426;33;33922;-74
2022/10/06 02:16:35;;;;;;;0.70;0.70;;;;;;;9.63;77.37;100329.28;4233395;33;35150;-74
2022/10/06 02:19:03;;;;;;;0.55;0.55;;;;;;;9.61;77.10;100336.22;4233683;33;34478;-74
2022/10/06 02:21:32;;;;;;;0.60;0.60;;;;;;;9.73;76.27;100334.59;4233388;33;33446;-74
2022/10/06 02:24:00;;;;;;;1.73;1.62;;;;;;;9.59;76.46;100337.06;4233282;33;34852;-74
2022/10/06 02:26:27;;;;;;;0.50;0.50;;;;;;;9.59;76.35;100331.87;4233424;33;35021;-74
2022/10/06 02:28:56;;;;;;;1.60;1.50;;;;;;;9.52;76.88;100337.88;4233332;33;35022;-74
2022/10/06 02:31:24;;;;;;;0.50;0.50;;;;;;;9.34;76.96;100341.16;4220774;33;34296;-74
2022/10/06 02:33:52;;;;;;;0.43;0.43;;;;;;;9.57;76.10;100339.66;4220843;33;34699;-74
2022/10/06 02:36:21;;;;;;;0.47;0.47;;;;;;;9.42;76.90;100339.50;4233655;33;35068;-74
2022/10/06 02:38:49;;;;;;;0.77;0.77;;;;;;;9.36;77.14;100339.44;4233166;33;35313;-74
2022/10/06 02:41:17;;;;;;;0.90;0.90;;;;;;;9.35;77.16;100335.09;4232416;33;33723;-74
2022/10/06 02:43:46;;;;;;;1.87;1.77;;;;;;;9.37;77.14;100339.47;4233425;33;33878;-74
2022/10/06 02:46:14;;;;;;;0.90;0.90;;;;;;;9.38;76.89;100332.53;4233369;33;35837;-74
2022/10/06 02:48:43;;;;;;;0.60;0.60;;;;;;;9.33;76.97;100339.41;4233306;33;34530;-74
2022/10/06 02:51:14;;;;;;;0.75;0.75;;;;;;;9.37;76.72;100338.56;4233432;33;33439;-74
2022/10/06 02:53:44;;;;;;;0.60;0.60;;;;;;;9.25;76.81;100342.81;4233389;33;33954;-74
2022/10/06 02:56:23;;;;;;;0.50;0.50;;;;;;;9.21;76.99;100335.84;4233127;33;34860;-74
2022/10/06 02:58:51;;;;;;;0.60;0.60;;;;;;;9.32;76.33;100335.94;4220558;33;34599;-74
2022/10/06 03:01:25;;;;;;;0.60;0.60;;;;;;;9.12;76.88;100330.53;4220496;33;33560;-74
2022/10/06 03:03:54;;;;;;;2.05;0.75;;;;;;;8.76;78.45;100336.16;4233172;33;34770;-74
2022/10/06 03:06:24;;;;;;;4.30;3.92;;;;;;;8.87;79.49;100342.34;4220362;33;34648;-74
2022/10/06 03:09:06;;;;;;;0.50;0.50;;;;;;;8.87;79.45;100340.62;4233153;33;34017;-74
2022/10/06 03:11:40;;;;;;;0.50;0.50;;;;;;;8.83;78.55;100338.84;4233004;33;34163;-74
2022/10/06 03:14:08;;;;;;;2.15;2.05;;;;;;;9.03;77.90;100340.81;4208751;33;32803;-74
2022/10/06 03:16:39;;;;;;;0.50;0.50;;;;;;;8.59;80.38;100338.53;4220347;33;34968;-74
2022/10/06 03:19:09;;;;;;;0.75;0.75;;;;;;;8.59;82.50;100344.59;4232884;33;35212;-74
2022/10/06 03:21:40;;;;;;;6.62;2.22;;;;;;;9.03;79.16;100346.00;4220245;33;33176;-74
2022/10/06 03:24:09;;;;;;;0.40;0.40;;;;;;;9.21;77.62;100348.84;4220260;33;34851;-74
2022/10/06 03:26:43;;;;;;;0.50;0.50;;;;;;;9.16;77.15;100350.50;4232876;33;34569;-74
2022/10/06 03:29:12;;;;;;;0.95;0.95;;;;;;;9.06;77.54;100348.66;4220407;33;34527;-74
2022/10/06 03:31:42;;;;;;;0.70;0.70;;;;;;;9.06;77.06;100356.44;4233002;33;33757;-74
2022/10/06 03:34:14;;;;;;;0.50;0.50;;;;;;;8.37;80.67;100353.78;4232909;33;33917;-74
2022/10/06 03:36:43;;;;;;;0.50;0.50;;;;;;;8.60;80.44;100350.69;4232844;33;35073;-74
2022/10/06 03:39:11;;;;;;;0.50;0.50;;;;;;;8.85;78.85;100349.25;4232725;33;34695;-74
2022/10/06 03:41:39;;;;;;;1.50;0.95;;;;;;;9.03;78.41;100346.88;4221386;33;33475;-74
2022/10/06 03:44:07;;;;;;;2.47;2.35;;;;;;;9.08;77.98;100350.41;4222154;33;34651;-74
2022/10/06 03:46:36;;;;;;;0.57;0.57;;;;;;;9.15;77.19;100340.09;4234276;33;36043;-74
2022/10/06 03:49:04;;;;;;;1.37;1.30;;;;;;;9.00;77.26;100343.38;4221981;33;34120;-74
2022/10/06 03:51:38;;;;;;;0.52;0.52;;;;;;;8.91;77.74;100345.03;4221873;33;33099;-74
2022/10/06 03:54:09;;;;;;;0.52;0.52;;;;;;;8.76;78.00;100341.38;4234522;33;33922;-74
2022/10/06 03:56:39;;;;;;;0.57;0.57;;;;;;;8.42;79.45;100346.97;4234590;33;35140;-74
2022/10/06 03:59:10;;;;;;;0.70;0.70;;;;;;;8.31;80.68;100346.78;4221826;33;33620;-74
2022/10/06 04:01:44;;;;;;;2.70;1.12;;;;;;;8.51;80.40;100344.50;4221915;33;33484;-74
2022/10/06 04:04:13;;;;;;;1.15;1.15;;;;;;;8.99;78.08;100344.25;4222078;33;33883;-74
2022/10/06 04:06:42;;;;;;;0.60;0.60;;;;;;;8.96;78.15;100350.25;4221464;33;35178;-74
2022/10/06 04:09:12;;;;;;;0.40;0.40;;;;;;;9.05;77.39;100349.50;4221432;33;35302;-74
2022/10/06 04:11:43;;;;;;;0.70;0.70;;;;;;;8.94;77.67;100353.69;4221566;33;34272;-74
2022/10/06 04:14:14;;;;;;;0.90;0.90;;;;;;;8.86;78.16;100353.62;4221466;33;34646;-74
2022/10/06 04:16:44;;;;;;;0.50;0.50;;;;;;;8.77;78.14;100354.38;4234409;33;35941;-74
2022/10/06 04:19:14;;;;;;;1.15;1.15;;;;;;;8.77;78.57;100353.47;4221516;33;33832;-74
2022/10/06 04:21:44;;;;;;;0.82;0.82;;;;;;;8.53;80.56;100365.28;4221861;33;33500;-74
2022/10/06 04:24:16;;;;;;;0.80;0.80;;;;;;;8.80;78.83;100364.78;4221640;33;34121;-74
2022/10/06 04:26:45;;;;;;;0.75;0.75;;;;;;;8.91;78.56;100354.53;4221928;33;35176;-74
2022/10/06 04:29:13;;;;;;;1.75;1.65;;;;;;;9.03;78.21;100362.47;4221548;33;34518;-74
2022/10/06 04:31:43;;;;;;;1.35;1.10;;;;;;;8.79;78.82;100356.97;4234008;33;33392;-74
2022/10/06 04:34:12;;;;;;;0.55;0.55;;;;;;;8.95;79.37;100358.03;4234463;33;34741;-74
2022/10/06 04:36:41;;;;;;;0.80;0.80;;;;;;;9.11;77.17;100355.63;4234211;33;35801;-74
2022/10/06 04:39:11;;;;;;;0.98;0.98;;;;;;;8.99;77.28;100354.63;4234163;33;35271;-74
2022/10/06 04:41:40;;;;;;;2.00;1.90;;;;;;;8.74;78.95;100356.91;4234228;33;33543;-74
2022/10/06 04:44:09;;;;;;;0.85;0.85;;;;;;;8.73;79.30;100356.06;4234071;33;34753;-74
2022/10/06 04:46:38;;;;;;;2.25;2.15;;;;;;;9.04;77.88;100348.63;4233830;33;35008;-74
2022/10/06 04:49:12;;;;;;;0.68;0.68;;;;;;;8.69;79.53;100350.78;4234282;33;34471;-74
2022/10/06 04:51:49;;;;;;;0.50;0.50;;;;;;;8.72;79.49;100351.69;4233545;33;33452;-74
2022/10/06 04:54:18;;;;;;;0.60;0.60;;;;;;;8.29;81.54;100352.78;4221284;33;34847;-74
2022/10/06 04:56:46;;;;;;;0.88;0.82;;;;;;;8.83;79.33;100354.44;4221334;33;35196;-74
2022/10/06 04:59:14;;;;;;;1.12;1.12;;;;;;;9.08;77.85;100354.72;4234171;33;34461;-74
2022/10/06 05:01:44;;;;;;;2.53;2.37;;;;;;;9.23;76.85;100360.13;4234272;33;33382;-74
2022/10/06 05:04:12;;;;;;;7.87;1.70;;;;;;;9.13;77.37;100358.25;4234086;33;34719;-74
2022/10/06 05:06:41;;;;;;;0.95;0.93;;;;;;;9.09;77.91;100361.69;4233780;33;35135;-74
2022/10/06 05:09:12;;;;;;;0.77;0.77;;;;;;;9.17;77.21;100348.78;4221179;33;35224;-74
2022/10/06 05:11:40;;;;;;;1.12;1.02;;;;;;;8.85;78.01;100350.13;4221524;33;34274;-74
2022/10/06 05:14:09;;;;;;;0.50;0.50;;;;;;;8.71;79.82;100352.53;4221439;33;33913;-74
2022/10/06 05:16:37;;;;;;;0.45;0.45;;;;;;;8.79;79.41;100351.78;4234122;33;35137;-74
2022/10/06 05:19:06;;;;;;;0.70;0.70;;;;;;;9.01;78.75;100347.72;4234025;33;35113;-74
2022/10/06 05:21:36;;;;;;;0.50;0.50;;;;;;;9.01;78.06;100352.91;4234142;33;33440;-74
2022/10/06 05:24:05;;;;;;;1.00;0.95;;;;;;;9.30;77.45;100361.06;4233950;33;34043;-74
2022/10/06 05:26:35;;;;;;;0.50;0.50;;;;;;;9.45;76.89;100362.94;4233945;33;35886;-74
2022/10/06 05:29:03;;;;;;;0.85;0.85;;;;;;;9.61;76.83;100359.63;4221192;33;34454;-74
2022/10/06 05:31:37;;;;;;;0.77;0.77;;;;;;;9.53;77.59;100365.59;4233662;33;34173;-74
2022/10/06 05:34:06;;;;;;;1.02;1.02;;;;;;;9.69;77.67;100364.91;4221874;33;33946;-74
2022/10/06 05:36:34;;;;;;;0.55;0.55;;;;;;;10.03;76.60;100371.25;4233883;33;36041;-74
2022/10/06 05:39:03;;;;;;;0.40;0.40;;;;;;;10.10;75.76;100361.78;4221326;33;34445;-74
2022/10/06 05:41:33;;;;;;;0.60;0.60;;;;;;;9.90;78.08;100364.25;4233899;33;33505;-74
2022/10/06 05:44:02;;;;;;;2.47;2.28;;;;;;;10.30;75.71;100363.66;4209534;33;32370;-74
2022/10/06 05:46:31;;;;;;;0.50;0.50;;;;;;;10.18;76.08;100364.44;4233819;33;35051;-74
2022/10/06 05:49:03;;;;;;;0.50;0.50;;;;;;;10.33;75.65;100366.31;4220985;33;34559;-74
2022/10/06 05:51:33;;;;;;;1.20;1.10;;;;;;;10.46;75.35;100365.53;4221060;33;34304;-74
2022/10/06 05:54:02;;;;;;;1.52;1.42;;;;;;;10.28;76.73;100371.44;4221312;33;33119;-74
2022/10/06 05:56:31;;;;;;;0.98;0.98;;;;;;;10.09;78.44;100372.19;4209294;33;34227;-74
2022/10/06 05:59:01;;;;;;;0.40;0.40;;;;;;;10.55;75.95;100364.72;4220979;33;35263;-74
2022/10/06 06:01:34;;;;;;;0.45;0.45;;;;;;;9.84;79.94;100371.97;4221130;33;33605;-74
2022/10/06 06:04:06;;;;;;;0.60;0.60;;;;;;;9.46;83.34;100378.56;4233339;33;33928;-74
2022/10/06 06:06:37;;;;;;;2.92;2.05;;;;;;;10.05;81.15;100379.94;4221194;33;34310;-74
2022/10/06 06:09:18;;;;;;;1.73;1.62;;;;;;;9.84;83.59;100384.97;4221189;33;34364;-74
2022/10/06 06:11:48;;;;;;;3.10;1.37;;;;;;;10.06;83.51;100388.66;4233540;33;33472;-74
2022/10/06 06:15:59;;;;;;;0.70;0.70;;;;;;;10.80;81.84;100392.66;4221113;33;34080;-74
2022/10/06 06:17:07;;;;;;;0.95;0.93;;;;;;;10.94;81.84;100389.22;4223233;33;35124;-74
2022/10/06 06:19:35;;;;;;;3.10;2.85;;;;;;;12.03;76.76;100391.25;4220875;33;34636;-74
2022/10/06 06:22:03;;;;;;;1.20;1.20;;;;;;;11.52;79.42;100399.87;4233635;33;34355;-74
2022/10/06 06:24:31;;;;;;;1.77;1.27;;;;;;;11.16;81.50;100406.69;4220958;33;33952;-74
2022/10/06 06:26:59;;;;;;;0.70;0.70;;;;;;;11.02;81.93;100413.59;4233330;33;36186;-74
2022/10/06 06:29:27;;;;;;;3.95;2.85;;;;;;;11.08;83.24;100413.63;4220913;33;34446;-74
2022/10/06 06:31:55;;;;;;;6.12;3.05;;;;;;;11.11;82.22;100418.84;4233331;33;33594;-74
2022/10/06 06:34:24;;;;;;;12.10;2.95;;;;;;;11.29;82.27;100422.41;4233383;33;33841;-74
2022/10/06 06:36:54;;;;;;;1.48;1.37;;;;;;;11.71;80.34;100420.78;4220410;33;33673;-74
2022/10/06 06:39:21;;;;;;;1.35;1.15;;;;;;;11.86;80.32;100427.75;4233265;33;34131;-74
2022/10/06 06:41:50;;;;;;;1.20;1.12;;;;;;;12.37;79.44;100430.41;4233552;33;33454;-74
2022/10/06 06:44:19;;;;;;;1.87;1.35;;;;;;;12.13;81.63;100440.87;4220805;33;33584;-74
2022/10/06 06:46:48;;;;;;;1.48;1.37;;;;;;;12.40;81.68;100433.91;4233229;33;36029;-74
2022/10/06 06:49:18;;;;;;;1.33;0.88;;;;;;;13.14;79.43;100427.66;4233107;33;34595;-74
2022/10/06 06:51:51;;;;;;;2.70;1.30;;;;;;;13.16;77.98;100428.50;4221098;33;34428;-74
2022/10/06 06:54:19;;;;;;;1.15;1.05;;;;;;;13.45;77.66;100436.28;4233438;33;33940;-74
2022/10/06 06:56:48;;;;;;;1.23;0.95;;;;;;;13.76;75.56;100433.47;4233293;33;35067;-74
2022/10/06 06:59:17;;;;;;;1.58;1.35;;;;;;;13.91;74.84;100443.00;4233333;33;35284;-74
2022/10/06 07:01:46;;;;;;;2.25;1.95;;;;;;;14.02;75.27;100446.41;4233374;33;33422;-74
2022/10/06 07:04:16;;;;;;;3.17;2.30;;;;;;;13.97;73.34;100443.81;4233241;33;34898;-75
2022/10/06 07:07:19;;;;;;;3.50;1.42;;;;;;;13.70;75.31;100447.47;4233158;33;35066;-75
2022/10/06 07:09:40;;;;;;;2.05;1.85;;;;;;;14.54;71.15;100461.72;4231977;33;35329;-75
2022/10/06 07:12:10;;;;;;;1.35;1.25;;;;;;;14.07;72.57;100449.84;4232886;33;33383;-75
2022/10/06 07:25:05;;;;;;;5.87;2.30;;;;;;;14.72;71.14;100455.47;4232425;33;34846;-75
2022/10/06 07:25:47;;;;;;;1.58;1.48;;;;;;;16.51;65.66;100462.72;4222225;33;34141;-75
2022/10/06 07:28:15;;;;;;;1.25;1.15;;;;;;;16.99;64.40;100460.97;4232665;33;35150;-75
2022/10/06 07:30:44;;;;;;;1.37;1.27;;;;;;;17.16;64.79;100465.94;4220174;33;35096;-75
2022/10/06 07:33:13;;;;;;;2.22;1.67;;;;;;;17.45;63.44;100464.47;4232858;33;33523;-75
2022/10/06 07:35:41;;;;;;;2.10;1.33;;;;;;;17.19;66.38;100460.63;4232747;33;34439;-75
2022/10/06 07:38:09;;;;;;;1.08;0.98;;;;;;;17.84;62.84;100461.84;4232517;33;35916;-75
2022/10/06 07:40:38;;;;;;;1.55;1.45;;;;;;;17.54;62.25;100461.66;4232495;33;34474;-75
2022/10/06 07:43:22;;;;;;;1.48;1.37;;;;;;;18.35;60.49;100463.31;4221968;33;33681;-75
2022/10/06 07:45:50;;;;;;;1.08;1.02;;;;;;;18.26;57.70;100459.12;4232699;33;34030;-75
2022/10/06 07:48:21;;;;;;;1.80;1.65;;;;;;;19.04;57.22;100464.22;4232640;33;35284;-75
2022/10/06 07:50:51;;;;;;;2.10;2.00;;;;;;;18.59;58.01;100472.41;4219987;33;34471;-75
2022/10/06 07:53:20;;;;;;;1.48;1.37;;;;;;;18.90;57.07;100471.59;4220163;33;34370;-75
2022/10/06 07:55:49;;;;;;;1.77;1.27;;;;;;;19.07;57.21;100474.66;4232343;33;34770;-75
2022/10/06 07:58:19;;;;;;;2.50;2.28;;;;;;;19.62;55.91;100479.28;4232500;33;35916;-75
2022/10/06 08:00:47;;;;;;;1.25;1.23;;;;;;;19.82;56.73;100474.28;4219673;33;34563;-75
2022/10/06 08:03:16;;;;;;;2.58;2.35;;;;;;;20.26;55.25;100479.09;4232334;33;34248;-76
2022/10/06 08:05:47;;;;;;;3.87;3.10;;;;;;;20.23;54.11;100479.19;4232246;33;34056;-76
2022/10/06 08:08:15;;;;;;;2.42;2.22;;;;;;;20.86;54.99;100474.44;4232106;33;34175;-75
2022/10/06 08:10:54;;;;;;;2.50;2.12;;;;;;;20.49;54.59;100480.97;4219598;33;34483;-76
2022/10/06 08:13:22;;;;;;;3.92;2.10;;;;;;;20.93;52.08;100470.66;4219402;33;33445;-76
2022/10/06 08:15:51;;;;;;;1.52;1.42;;;;;;;21.35;51.73;100475.31;4219583;33;34036;-76
2022/10/06 08:18:19;;;;;;;0.73;0.70;;;;;;;21.62;51.85;100474.34;4219491;33;35919;-76
2022/10/06 08:21:13;;;;;;;2.35;1.85;;;;;;;21.78;51.92;100480.81;4232122;33;35057;-76
2022/10/06 08:23:43;;;;;;;1.48;1.40;;;;;;;22.14;50.30;100477.59;4219445;33;33411;-76
2022/10/06 08:26:11;;;;;;;3.12;1.65;;;;;;;;;;4232120;33;33975;-75
2022/10/06 08:28:43;;;;;;;2.40;2.20;;;;;;;22.10;49.36;100481.31;4234123;33;36037;-76
2022/10/06 08:31:14;;;;;;;2.62;1.42;;;;;;;22.69;50.40;100485.09;4209805;33;33758;-76
2022/10/06 08:33:43;;;;;;;4.37;2.15;;;;;;;23.06;48.65;100483.53;4210069;33;33853;-75
2022/10/06 08:36:16;;;;;;;2.03;1.85;;;;;;;23.20;47.60;100483.78;4221398;33;33953;-75
2022/10/06 08:38:50;;;;;;;2.75;2.42;;;;;;;23.30;47.86;100475.41;4234017;33;36002;-75
2022/10/06 08:41:22;;;;;;;4.53;2.62;;;;;;;23.92;44.77;100478.75;4222039;33;34602;-75
2022/10/06 08:43:55;;;;;;;2.45;1.33;;;;;;;24.18;46.44;100482.81;4221405;33;34279;-76
2022/10/06 08:46:25;;;;;;;1.37;1.27;;;;;;;24.14;44.74;100489.19;4221482;33;33672;-75
2022/10/06 08:48:53;;;;;;;3.08;2.78;;;;;;;24.09;44.22;100483.22;4221283;33;34382;-73
2022/10/06 08:51:24;;;;;;;1.55;1.45;;;;;;;24.53;44.42;100485.47;4233918;33;34584;-73
2022/10/06 08:54:07;;;;;;;2.17;1.60;;;;;;;24.58;43.95;100489.69;4234233;33;33472;-75
2022/10/06 08:56:47;;;;;;;3.47;1.70;;;;;;;24.87;43.32;100487.34;4233966;33;34120;-76
2022/10/06 08:59:15;;;;;;;2.80;1.95;;;;;;;25.29;41.60;100483.38;4233807;33;35164;-75
2022/10/06 09:01:48;;;;;;;1.45;1.35;;;;;;;25.49;42.91;100482.28;4233895;33;34540;-75
2022/10/06 09:04:27;;;;;;;1.90;1.80;;;;;;;25.67;42.10;100484.87;4233903;33;33488;-75
2022/10/06 09:06:59;;;;;;;2.37;2.17;;;;;;;26.09;39.60;100481.63;4234113;33;33998;-76
2022/10/06 09:09:39;;;;;;;2.20;1.62;;;;;;;26.56;39.90;100481.63;4233883;33;35007;-75
2022/10/06 09:12:30;;;;;;;1.20;1.10;;;;;;;27.02;39.77;100482.44;4233670;33;34261;-76
2022/10/06 09:15:11;;;;;;;1.10;0.95;;;;;;;26.98;38.68;100480.03;4221308;33;33399;-75
2022/10/06 09:18:09;;;;;;;1.42;1.12;;;;;;;27.78;37.89;100483.94;4221324;33;34820;-75
2022/10/06 09:20:42;;;;;;;1.52;1.42;;;;;;;27.90;37.57;100486.78;4221504;33;36002;-76
2022/10/06 09:23:16;;;;;;;0.77;0.77;;;;;;;27.38;38.43;100490.97;4233696;33;34427;-75
2022/10/06 09:25:44;;;;;;;0.90;0.68;;;;;;;28.49;35.78;100494.53;4220914;33;34555;-75
2022/10/06 09:28:14;;;;;;;1.37;0.68;;;;;;;28.82;34.93;100498.59;4233317;33;34169;-76
2022/10/06 09:30:42;;;;;;;0.70;0.70;;;;;;;28.17;37.19;100490.38;4221018;33;34558;-76
2022/10/06 09:33:19;;;;;;;0.80;0.80;;;;;;;28.34;35.00;100488.37;4233722;33;34387;-76
2022/10/06 09:36:11;;;;;;;1.15;1.05;;;;;;;28.14;35.04;100493.25;4233764;33;33435;-76
2022/10/06 09:38:56;;;;;;;0.73;0.57;;;;;;;27.52;36.43;100496.31;4233008;33;33926;-76
2022/10/06 09:41:30;;;;;;;0.52;0.52;;;;;;;27.46;35.23;100490.47;4222681;33;36248;-75
2022/10/06 09:44:23;;;;;;;0.70;0.70;;;;;;;27.78;36.63;100493.81;4249313;33;34415;-76
2022/10/06 09:46:52;;;;;;;0.73;0.73;;;;;;;27.89;36.53;100499.31;4249199;33;33941;-75
2022/10/06 09:49:24;;;;;;;0.75;0.62;;;;;;;27.40;36.54;100503.28;4237240;33;33978;-76
2022/10/06 09:52:13;;;;;;;0.60;0.60;;;;;;;27.52;37.71;100506.16;4261716;33;35910;-75
2022/10/06 09:54:42;;;;;;;0.47;0.45;;;;;;;28.21;36.04;100500.88;4248974;33;35229;-75
2022/10/06 09:57:17;;;;;;;0.62;0.55;;;;;;;27.50;38.82;100510.75;4236912;33;33484;-75
2022/10/06 09:59:47;;;;;;;0.30;0.30;;;;;;;27.61;36.70;100505.56;4226694;33;34158;-76
2022/10/06 10:02:36;;;;;;;0.20;0.20;;;;;;;27.19;36.39;100510.78;4247490;33;34346;-76
2022/10/06 10:05:16;;;;;;;0.80;0.70;;;;;;;26.74;37.26;100509.13;4235170;33;34601;-75
2022/10/06 10:07:46;;;;;;;0.65;0.45;;;;;;;26.05;36.55;100506.78;4234812;33;34355;-75
2022/10/06 10:10:18;;;;;;;0.90;0.90;;;;;;;26.28;35.78;100502.81;4247302;33;33571;-75
2022/10/06 10:12:53;;;;;;;0.37;0.37;;;;;;;26.42;36.74;100496.66;4247331;33;35269;-75
2022/10/06 10:15:21;;;;;;;0.40;0.40;;;;;;;26.76;36.23;100496.53;4247460;33;34342;-75
2022/10/06 10:18:11;;;;;;;1.23;0.88;;;;;;;27.24;35.23;100506.03;4247464;33;33513;-75
2022/10/06 10:20:49;;;;;;;0.80;0.80;;;;;;;27.12;34.66;100497.91;4247468;33;33858;-75
2022/10/06 10:23:24;;;;;;;0.30;0.30;;;;;;;26.64;35.11;100498.94;4223241;33;35287;-75
2022/10/06 10:26:14;;;;;;;0.80;0.80;;;;;;;26.44;35.41;100496.59;4247650;33;34582;-76
2022/10/06 10:29:13;;;;;;;0.62;0.62;;;;;;;26.73;36.13;100497.53;4247349;33;33503;-76
2022/10/06 10:32:05;;;;;;;0.52;0.52;;;;;;;26.86;37.52;100489.69;4223281;33;34825;-76
2022/10/06 10:34:37;;;;;;;1.05;0.95;;;;;;;26.64;35.05;100496.28;4247178;33;35926;-75
2022/10/06 10:37:17;;;;;;;0.35;0.35;;;;;;;25.66;37.94;100484.03;4247583;33;35217;-75
2022/10/06 10:40:24;;;;;;;0.28;0.28;;;;;;;25.72;37.13;100485.50;4247525;33;33583;-75
2022/10/06 10:42:59;;;;;;;0.35;0.35;;;;;;;25.79;38.22;100484.22;4234626;33;34787;-76
2022/10/06 10:45:32;;;;;;;0.50;0.50;;;;;;;26.20;36.07;100488.19;4247343;33;36023;-76
2022/10/06 10:48:06;;;;;;;1.85;0.90;;;;;;;25.47;38.81;100484.19;4234561;33;34440;-76
2022/10/06 10:50:41;;;;;;;1.55;1.45;;;;;;;24.98;38.84;100486.78;4234251;33;33510;-75
2022/10/06 10:53:19;;;;;;;0.32;0.32;;;;;;;25.21;37.60;100488.22;4247183;33;33906;-79
2022/10/06 10:55:47;;;;;;;0.40;0.40;;;;;;;24.99;40.62;100493.84;4234399;33;35183;-80
2022/10/06 10:58:15;;;;;;;0.50;0.50;;;;;;;24.98;41.34;100486.78;4234274;33;34534;-78
2022/10/06 11:00:46;;;;;;;1.15;0.98;;;;;;;25.82;39.38;100484.03;4247100;33;34299;-88
2022/10/06 11:03:14;;;;;;;0.37;0.37;;;;;;;25.81;38.49;100490.31;4248555;33;33178;-82
2022/10/06 11:05:49;;;;;;;0.60;0.60;;;;;;;25.99;38.41;100475.09;4261263;33;35881;-79
2022/10/06 11:08:18;;;;;;;0.70;0.70;;;;;;;26.66;38.38;100486.34;4248651;33;34596;-86
2022/10/06 11:10:49;;;;;;;1.08;1.00;;;;;;;27.10;37.63;100484.63;4261572;33;33730;-85
2022/10/06 11:13:26;;;;;;;2.72;1.90;;;;;;;27.38;34.63;100491.81;4246149;33;33936;-84
2022/10/06 11:16:15;;;;;;;0.37;0.37;;;;;;;28.12;36.28;100476.41;4246997;33;36019;-86
2022/10/06 11:19:13;;;;;;;1.23;0.98;;;;;;;28.72;33.74;100487.66;4246879;33;35239;-86
2022/10/06 11:21:46;;;;;;;3.17;0.77;;;;;;;29.38;32.18;100475.00;4234288;33;34277;-78
2022/10/06 11:24:42;;;;;;;0.55;0.40;;;;;;;29.04;33.12;100471.16;4246658;33;33904;-83
2022/10/06 11:27:29;;;;;;;;;;;;;;;29.36;31.66;100468.91;4245991;33;34954;-76
2022/10/06 11:30:10;;;;;;;0.77;0.77;;;;;;;29.08;33.78;100476.22;4245175;33;34591;-80
2022/10/06 11:33:05;;;;;;;0.50;0.50;;;;;;;29.20;32.40;100477.19;4234093;33;33540;-75
2022/10/06 11:35:38;;;;;;;0.28;0.28;;;;;;;28.76;33.40;100470.38;4254546;33;34590;-82
2022/10/06 11:38:39;;;;;;;0.50;0.50;;;;;;;28.63;33.32;100466.84;4260553;33;35122;-76
2022/10/06 11:41:37;;;;;;;0.32;0.32;;;;;;;28.14;33.59;100461.09;4260767;33;35233;-76
2022/10/06 11:44:16;;;;;;;0.70;0.70;;;;;;;27.77;34.41;100452.78;4246599;33;33586;-83
2022/10/06 11:46:52;;;;;;;0.43;0.43;;;;;;;26.62;38.82;100460.78;4247673;33;33984;-83
2022/10/06 11:49:30;;;;;;;0.68;0.68;;;;;;;27.05;36.38;100458.19;4236310;33;35177;-76
2022/10/06 11:52:07;;;;;;;1.20;1.08;;;;;;;26.55;37.80;100462.06;4260704;33;34391;-76
2022/10/06 11:54:45;;;;;;;1.10;1.00;;;;;;;26.86;36.16;100460.28;4260669;33;33504;-75
2022/10/06 11:57:22;;;;;;;0.57;0.52;;;;;;;26.21;38.51;100458.72;4260535;33;34094;-75
2022/10/06 12:00:03;;;;;;;0.40;0.40;;;;;;;26.73;38.37;100467.31;4260705;33;35911;-76
2022/10/06 12:02:33;;;;;;;0.45;0.45;;;;;;;26.80;38.69;100460.63;4261780;33;34561;-76